ADDS METAR Data INFO
IDs: Format: Raw Decoded Include TAF

Data at: 0935 UTC 25 Nov 2017

KCDS 250853Z AUTO 02014KT 10SM CLR 13/03 A2991 RMK AO2 SLP109 T01330033 53034
KCDS 250753Z AUTO 03015G22KT 10SM CLR 14/03 A2987 RMK AO2 SLP093 T01390028
KCDS 250653Z AUTO 02015KT 10SM CLR 12/02 A2984 RMK AO2 SLP086 T01220017
KCDS 250553Z AUTO 36007KT 10SM CLR 10/01 A2981 RMK AO2 SLP076 T01000011 10211 20078 402940078 53030
KCDS 250453Z AUTO 01005KT 10SM CLR 11/01 A2977 RMK AO2 SLP065 T01110011
KCDS 250353Z AUTO 36008KT 10SM CLR 13/01 A2974 RMK AO2 SLP058 T01330006
KCDS 250253Z AUTO 00000KT 10SM CLR 13/01 A2971 RMK AO2 SLP050 T01330006 53011
KCDS 250153Z AUTO 12005KT 10SM CLR 15/01 A2970 RMK AO2 SLP051 T01500006
KCDS 250053Z AUTO 19008KT 10SM CLR 17/01 A2969 RMK AO2 SLP043 T01670006
KCDS 242353Z AUTO 19009KT 10SM CLR 21/01 A2968 RMK AO2 SLP036 60000 T02110006 10294 20211 55003
KCDS 242253Z AUTO 17007KT 10SM CLR 26/01 A2967 RMK AO2 SLP030 T02610006
KCDS 242153Z AUTO 19013KT 10SM CLR 28/01 A2967 RMK AO2 RAE2055 SLP027 P0000 T02830006
KCDS 242053Z AUTO 22012G17KT 10SM -RA CLR 29/M01 A2969 RMK AO2 SLP035 P0000 60000 T02891011 56027
KCDS 241953Z AUTO 21013G21KT 10SM -RA CLR 29/01 A2971 RMK AO2 SLP040 P0000 T02940006
KCDS 241853Z AUTO 21016G21KT 10SM -RA CLR 28/01 A2972 RMK AO2 RAB08 PRESFR SLP045 P0000 T02780006
KCDS 241753Z AUTO 21013G22KT 10SM CLR 26/00 A2977 RMK AO2 PRESFR SLP063 T02610000 10261 20078 58024
KCDS 241653Z AUTO 22013KT 10SM CLR 22/02 A2982 RMK AO2 SLP081 T02220017
KCDS 241553Z AUTO 22008KT 10SM CLR 17/02 A2985 RMK AO2 SLP094 T01720017
KCDS 241453Z AUTO 22009KT 10SM CLR 14/02 A2985 RMK AO2 SLP096 T01440017 58006
KCDS 241353Z AUTO 20005KT 10SM CLR 08/01 A2985 RMK AO2 SLP102 T00830011
KCDS 241253Z AUTO 22007KT 10SM CLR 08/01 A2986 RMK AO2 SLP103 T00830006
KCDS 241153Z AUTO 24007KT 10SM CLR 10/01 A2987 RMK AO2 SLP103 T01000011 10128 20083 56016
KCDS 241053Z AUTO 22008KT 10SM CLR 11/01 A2987 RMK AO2 SLP100 T01110011
KCDS 240953Z AUTO 24007KT 10SM CLR 09/01 A2990 RMK AO2 SLP108 T00940006
KCDS 240853Z AUTO 25007KT 10SM CLR 08/01 A2992 RMK AO2 SLP115 T00830006 56015
KCDS 240753Z AUTO 20003KT 10SM CLR 11/01 A2993 RMK AO2 SLP118 T01110011
KCDS 240653Z AUTO 19008KT 10SM CLR 12/01 A2995 RMK AO2 SLP125 T01220011
KCDS 240553Z AUTO 18010KT 10SM CLR 13/01 A2997 RMK AO2 SLP132 T01280011 10189 20117 402610017 58013
KCDS 240453Z AUTO 18009KT 10SM CLR 13/01 A2998 RMK AO2 SLP140 T01280011
KCDS 240353Z AUTO 18008KT 10SM CLR 13/01 A3000 RMK AO2 SLP148 T01280011
KCDS 240253Z AUTO 16008KT 10SM CLR 13/01 A3001 RMK AO2 SLP153 T01280011 50002
KCDS 240153Z AUTO 15007KT 10SM CLR 14/01 A3001 RMK AO2 SLP158 T01440011
KCDS 240053Z AUTO 16005KT 10SM CLR 17/01 A3000 RMK AO2 SLP156 T01670006
KCDS 232353Z AUTO 16007KT 10SM CLR 19/00 A3000 RMK AO2 SLP153 T01890000 10261 20189 56009
KCDS 232253Z AUTO 17003KT 10SM CLR 24/00 A3001 RMK AO2 SLP152 T02440000
KCDS 232153Z AUTO 00000KT 10SM CLR 26/00 A3001 RMK AO2 SLP153 T02560000